createdAt,value
2023-05-05T00:02:04.512Z,53.80
2023-05-05T00:04:31.417Z,53.90
2023-05-05T00:06:58.326Z,53.90
2023-05-05T00:09:25.411Z,53.90
2023-05-05T00:11:53.196Z,54.00
2023-05-05T00:14:20.019Z,54.10
2023-05-05T00:16:47.354Z,54.20
2023-05-05T00:19:16.593Z,54.30
2023-05-05T00:21:44.313Z,54.20
2023-05-05T00:24:11.545Z,55.10
2023-05-05T00:26:38.418Z,55.20
2023-05-05T00:29:05.910Z,55.20
2023-05-05T00:31:32.990Z,55.10
2023-05-05T00:34:00.213Z,55.10
2023-05-05T00:36:27.431Z,55.10
2023-05-05T00:38:54.253Z,55.10
2023-05-05T00:41:21.421Z,55.30
2023-05-05T00:43:48.775Z,55.40
2023-05-05T00:46:26.435Z,55.50
2023-05-05T00:48:53.765Z,55.50
2023-05-05T00:51:20.960Z,55.60
2023-05-05T00:53:50.416Z,55.40
2023-05-05T00:56:18.475Z,55.50
2023-05-05T00:58:46.279Z,55.60
2023-05-05T01:01:13.670Z,56.20
2023-05-05T01:03:44.593Z,55.50
2023-05-05T01:06:38.844Z,55.80
2023-05-05T01:09:27.111Z,55.30
2023-05-05T01:12:09.817Z,55.30
2023-05-05T01:14:43.616Z,55.50
2023-05-05T01:17:20.760Z,55.60
2023-05-05T01:20:15.654Z,55.80
2023-05-05T01:22:46.748Z,55.70
2023-05-05T01:25:33.505Z,55.90
2023-05-05T01:28:23.899Z,56.00
2023-05-05T01:30:57.408Z,55.90
2023-05-05T01:33:27.455Z,55.90
2023-05-05T01:35:56.481Z,55.90
2023-05-05T01:38:31.488Z,56.00
2023-05-05T01:41:19.498Z,56.10
2023-05-05T01:43:47.213Z,56.10
2023-05-05T01:46:14.268Z,56.00
2023-05-05T01:48:42.692Z,55.90
2023-05-05T01:51:09.557Z,55.70
2023-05-05T01:53:36.337Z,55.80
2023-05-05T01:56:04.132Z,55.80
2023-05-05T01:58:31.132Z,55.70
2023-05-05T02:00:58.579Z,56.40
2023-05-05T02:03:26.889Z,55.90
2023-05-05T02:05:53.787Z,56.00
2023-05-05T02:08:21.236Z,56.10
2023-05-05T02:10:48.119Z,56.10
2023-05-05T02:13:16.162Z,56.00
2023-05-05T02:15:44.003Z,56.20
2023-05-05T02:18:10.928Z,56.30
2023-05-05T02:20:38.664Z,56.90
2023-05-05T02:23:10.244Z,56.30
2023-05-05T02:25:46.162Z,56.40
2023-05-05T02:28:19.482Z,56.50
2023-05-05T02:30:51.721Z,56.50
2023-05-05T02:33:18.601Z,56.60
2023-05-05T02:35:46.004Z,56.60
2023-05-05T02:38:19.533Z,56.60
2023-05-05T02:40:47.064Z,56.80
2023-05-05T02:43:16.814Z,56.80
2023-05-05T02:45:44.537Z,57.40
2023-05-05T02:48:15.872Z,56.70
2023-05-05T02:50:42.671Z,56.60
2023-05-05T02:53:10.162Z,56.60
2023-05-05T02:55:44.565Z,56.70
2023-05-05T02:58:34.358Z,56.80
2023-05-05T03:01:04.240Z,56.80
2023-05-05T03:03:40.241Z,56.90
2023-05-05T03:06:20.244Z,56.90
2023-05-05T03:09:08.626Z,56.90
2023-05-05T03:12:05.774Z,57.00
2023-05-05T03:14:36.637Z,57.00
2023-05-05T03:17:03.585Z,57.00
2023-05-05T03:19:30.761Z,57.00
2023-05-05T03:21:57.640Z,57.10
2023-05-05T03:24:24.484Z,57.20
2023-05-05T03:26:51.455Z,57.20
2023-05-05T03:29:19.074Z,57.10
2023-05-05T03:31:46.040Z,57.10
2023-05-05T03:34:13.367Z,57.10
2023-05-05T03:36:40.643Z,56.90
2023-05-05T03:39:08.018Z,57.00
2023-05-05T03:41:34.872Z,57.10
2023-05-05T03:44:02.615Z,57.20
2023-05-05T03:46:29.419Z,57.20
2023-05-05T03:48:57.314Z,57.30
2023-05-05T03:51:25.355Z,57.30
2023-05-05T03:53:52.274Z,57.30
2023-05-05T03:56:19.139Z,57.30
2023-05-05T03:58:46.123Z,57.30
2023-05-05T04:01:12.929Z,57.40
2023-05-05T04:03:40.820Z,57.50
2023-05-05T04:06:07.804Z,57.50
2023-05-05T04:08:34.666Z,57.50
2023-05-05T04:11:02.679Z,57.70
2023-05-05T04:13:29.622Z,57.70
2023-05-05T04:15:56.980Z,57.80
2023-05-05T04:18:23.858Z,57.80
2023-05-05T04:20:50.818Z,57.80
2023-05-05T04:23:18.278Z,57.90
2023-05-05T04:25:45.182Z,58.00
2023-05-05T04:28:12.144Z,58.00
2023-05-05T04:30:39.066Z,58.10
2023-05-05T04:33:06.298Z,58.10
2023-05-05T04:35:33.873Z,58.30
2023-05-05T04:38:01.169Z,58.50
2023-05-05T04:40:29.117Z,58.50
2023-05-05T04:42:55.978Z,58.50
2023-05-05T04:45:22.975Z,58.70
2023-05-05T04:47:50.840Z,58.60
2023-05-05T04:50:17.866Z,58.70
2023-05-05T04:52:47.848Z,59.00
2023-05-05T04:55:15.495Z,58.60
2023-05-05T04:57:42.352Z,58.40
2023-05-05T05:00:09.914Z,57.60
2023-05-05T05:02:38.394Z,57.60
2023-05-05T05:05:05.727Z,57.90
2023-05-05T05:07:32.503Z,57.70
2023-05-05T05:10:00.660Z,57.60
2023-05-05T05:12:27.580Z,57.60
2023-05-05T05:14:54.465Z,57.60
2023-05-05T05:17:22.594Z,57.70
2023-05-05T05:19:49.759Z,57.40
2023-05-05T05:22:18.302Z,57.20
2023-05-05T05:24:45.319Z,57.00
2023-05-05T05:27:13.204Z,56.80
2023-05-05T05:29:39.989Z,56.50
2023-05-05T05:32:07.024Z,56.50
2023-05-05T05:34:33.881Z,56.60
2023-05-05T05:37:01.303Z,56.50
2023-05-05T05:39:29.146Z,56.60
2023-05-05T05:41:55.978Z,56.70
2023-05-05T05:44:22.873Z,56.40
2023-05-05T05:46:49.745Z,56.00
2023-05-05T05:49:20.054Z,55.70
2023-05-05T05:51:46.877Z,55.70
2023-05-05T05:54:13.649Z,55.30
2023-05-05T05:56:40.745Z,55.50
2023-05-05T05:59:13.511Z,55.50
2023-05-05T06:01:40.538Z,55.40
2023-05-05T06:04:07.851Z,55.20
2023-05-05T06:06:35.701Z,55.30
2023-05-05T06:09:02.526Z,55.80
2023-05-05T06:11:29.419Z,55.10
2023-05-05T06:13:56.265Z,54.90
2023-05-05T06:16:23.461Z,54.80
2023-05-05T06:18:50.218Z,54.40
2023-05-05T06:21:17.760Z,54.70
2023-05-05T06:23:44.666Z,54.70
2023-05-05T06:26:11.529Z,54.70
2023-05-05T06:28:40.051Z,54.30
2023-05-05T06:31:07.006Z,54.30
2023-05-05T06:33:33.821Z,54.30
2023-05-05T06:36:02.368Z,54.10
2023-05-05T06:38:29.551Z,54.20
2023-05-05T06:40:59.253Z,54.00
2023-05-05T06:43:26.198Z,54.00
2023-05-05T06:45:53.422Z,54.00
2023-05-05T06:48:20.259Z,54.00
2023-05-05T06:50:47.146Z,54.00
2023-05-05T06:53:14.039Z,54.10
2023-05-05T06:55:44.219Z,54.00
2023-05-05T06:58:12.269Z,53.90
2023-05-05T07:00:40.229Z,54.00
2023-05-05T07:03:07.123Z,54.50
2023-05-05T07:05:34.209Z,53.80
2023-05-05T07:08:01.070Z,53.80
2023-05-05T07:10:28.181Z,53.70
2023-05-05T07:12:55.163Z,53.60
2023-05-05T07:15:28.845Z,53.60
2023-05-05T07:17:57.040Z,53.40
2023-05-05T07:20:25.229Z,53.40
2023-05-05T07:22:52.131Z,53.10
2023-05-05T07:25:21.643Z,53.10
2023-05-05T07:27:48.522Z,52.90
2023-05-05T07:30:18.511Z,53.10
2023-05-05T07:32:46.341Z,53.20
2023-05-05T07:35:13.543Z,52.80
2023-05-05T07:37:40.378Z,52.80
2023-05-05T07:40:08.153Z,53.40
2023-05-05T07:42:35.155Z,52.40
2023-05-05T07:45:02.373Z,52.40
2023-05-05T07:47:29.301Z,52.20
2023-05-05T07:49:56.341Z,52.20
2023-05-05T07:52:43.307Z,52.20
2023-05-05T07:55:12.439Z,51.90
2023-05-05T07:57:39.410Z,51.40
2023-05-05T08:00:08.440Z,51.60
2023-05-05T08:02:35.549Z,51.60
2023-05-05T08:05:02.456Z,51.70
2023-05-05T08:07:29.267Z,51.90
2023-05-05T08:09:57.187Z,51.80
2023-05-05T08:12:24.005Z,51.70
2023-05-05T08:14:50.918Z,51.70
2023-05-05T08:17:21.064Z,51.90
2023-05-05T08:19:47.892Z,51.90
2023-05-05T08:22:15.026Z,52.00
2023-05-05T08:24:43.445Z,52.00
2023-05-05T08:27:10.443Z,51.80
2023-05-05T08:29:37.925Z,51.50
2023-05-05T08:32:04.898Z,51.60
2023-05-05T08:34:32.011Z,51.60
2023-05-05T08:36:58.809Z,51.80
2023-05-05T08:39:26.235Z,51.90
2023-05-05T08:41:53.059Z,51.70
2023-05-05T08:44:20.646Z,51.50
2023-05-05T08:46:47.572Z,51.50
2023-05-05T08:49:17.899Z,51.40
2023-05-05T08:51:48.845Z,51.50
2023-05-05T08:54:18.133Z,51.40
2023-05-05T08:56:45.163Z,50.40
2023-05-05T08:59:12.181Z,50.70
2023-05-05T09:01:39.480Z,50.50
2023-05-05T09:04:07.806Z,50.50
2023-05-05T09:06:35.671Z,50.50
2023-05-05T09:09:03.617Z,50.30
2023-05-05T09:11:30.582Z,49.80
2023-05-05T09:13:57.460Z,49.80
2023-05-05T09:16:24.488Z,49.80
2023-05-05T09:18:51.366Z,50.10
2023-05-05T09:21:25.493Z,50.40
2023-05-05T09:24:09.416Z,50.50
2023-05-05T09:26:43.449Z,50.50
2023-05-05T09:29:17.254Z,50.80
2023-05-05T09:31:44.092Z,51.10
2023-05-05T09:34:17.908Z,50.90
2023-05-05T09:36:49.260Z,51.10
2023-05-05T09:39:20.003Z,51.10
2023-05-05T09:41:47.152Z,50.60
2023-05-05T09:44:17.114Z,50.30
2023-05-05T09:46:55.298Z,50.20
2023-05-05T09:49:27.118Z,50.30
2023-05-05T09:51:54.363Z,50.00
2023-05-05T09:54:29.360Z,49.90
2023-05-05T09:57:00.246Z,49.90
2023-05-05T09:59:27.101Z,49.90
2023-05-05T10:01:53.945Z,50.00
2023-05-05T10:04:29.255Z,49.70
2023-05-05T10:06:56.842Z,49.50
2023-05-05T10:09:25.168Z,49.50
2023-05-05T10:11:52.293Z,49.40
2023-05-05T10:14:20.058Z,49.00
2023-05-05T10:16:51.104Z,48.90
2023-05-05T10:19:27.261Z,48.20
2023-05-05T10:21:57.010Z,47.90
2023-05-05T10:25:01.385Z,48.30
2023-05-05T10:27:29.522Z,47.90
2023-05-05T10:30:12.134Z,48.20
2023-05-05T10:32:59.364Z,48.20
2023-05-05T10:35:36.416Z,47.30
2023-05-05T10:38:03.267Z,47.10
2023-05-05T10:40:31.433Z,46.70
2023-05-05T10:42:58.266Z,46.80
2023-05-05T10:45:26.857Z,46.70
2023-05-05T10:47:53.816Z,47.10
2023-05-05T10:50:31.955Z,47.20
2023-05-05T10:53:29.218Z,47.10
2023-05-05T10:56:16.402Z,47.10
2023-05-05T10:58:55.590Z,47.20
2023-05-05T11:01:34.650Z,47.30
2023-05-05T11:04:21.706Z,47.30
2023-05-05T11:07:14.362Z,46.60
2023-05-05T11:10:07.185Z,46.30
2023-05-05T11:13:02.796Z,46.50
2023-05-05T11:15:30.654Z,46.20
2023-05-05T11:17:58.362Z,46.20
2023-05-05T11:20:39.603Z,46.10
2023-05-05T11:23:06.674Z,46.00
2023-05-05T11:25:41.555Z,45.80
2023-05-05T11:28:12.987Z,45.30
2023-05-05T11:30:56.636Z,45.10
2023-05-05T11:33:32.685Z,42.90
2023-05-05T11:36:04.183Z,43.40
2023-05-05T11:38:57.954Z,44.40
2023-05-05T11:41:32.930Z,45.00
2023-05-05T11:44:21.663Z,44.80
2023-05-05T11:46:52.491Z,44.30
2023-05-05T11:49:31.638Z,43.90
2023-05-05T11:52:13.304Z,43.70
2023-05-05T11:54:50.664Z,43.80
2023-05-05T11:57:21.216Z,44.10
2023-05-05T11:59:54.322Z,44.00
2023-05-05T12:02:22.344Z,43.70
2023-05-05T12:04:49.383Z,43.20
2023-05-05T12:07:19.961Z,43.80
2023-05-05T12:09:48.316Z,43.60
2023-05-05T12:12:15.356Z,44.20
2023-05-05T12:14:52.666Z,43.40
2023-05-05T12:17:20.593Z,43.30
2023-05-05T12:19:47.879Z,42.50
2023-05-05T12:22:28.422Z,42.80
2023-05-05T12:24:57.762Z,42.30
2023-05-05T12:27:26.464Z,41.90
2023-05-05T12:29:56.840Z,42.50
2023-05-05T12:32:29.922Z,42.70
2023-05-05T12:34:59.624Z,41.60
2023-05-05T12:37:27.614Z,42.00
2023-05-05T12:39:55.153Z,40.50
2023-05-05T12:42:22.628Z,40.30
2023-05-05T12:44:49.611Z,38.60
2023-05-05T12:47:31.714Z,38.90
2023-05-05T12:50:00.915Z,38.50
2023-05-05T12:52:45.742Z,38.60
2023-05-05T12:55:12.761Z,38.20
2023-05-05T12:58:04.680Z,38.80
2023-05-05T13:00:31.745Z,39.40
2023-05-05T13:02:59.761Z,39.60
2023-05-05T13:05:34.433Z,39.70
2023-05-05T13:08:01.275Z,39.30
2023-05-05T13:10:28.462Z,39.40
2023-05-05T13:12:56.865Z,38.60
2023-05-05T13:15:24.596Z,37.70
2023-05-05T13:17:51.491Z,37.70
2023-05-05T13:20:18.423Z,37.30
2023-05-05T13:22:45.590Z,38.50
2023-05-05T13:25:12.743Z,37.90
2023-05-05T13:27:39.654Z,38.00
2023-05-05T13:30:07.597Z,37.80
2023-05-05T13:32:34.427Z,36.40
2023-05-05T13:35:04.253Z,36.70
2023-05-05T13:37:32.318Z,37.20
2023-05-05T13:40:00.430Z,37.50
2023-05-05T13:42:31.777Z,37.00
2023-05-05T13:44:58.983Z,35.60
2023-05-05T13:47:27.428Z,36.00
2023-05-05T13:49:54.817Z,36.40
2023-05-05T13:52:28.249Z,36.80
2023-05-05T13:55:03.719Z,36.40
2023-05-05T13:57:30.701Z,35.20
2023-05-05T13:59:58.662Z,34.80
2023-05-05T14:02:25.686Z,34.40
2023-05-05T14:04:53.257Z,33.10
2023-05-05T14:07:20.101Z,33.50
2023-05-05T14:09:47.023Z,34.20
2023-05-05T14:12:14.294Z,33.60
2023-05-05T14:14:41.080Z,34.60
2023-05-05T14:17:09.009Z,34.90
2023-05-05T14:19:37.141Z,34.90
2023-05-05T14:22:05.005Z,35.10
2023-05-05T14:24:31.832Z,35.30
2023-05-05T14:27:00.039Z,34.10
2023-05-05T14:29:26.800Z,33.40
2023-05-05T14:31:53.660Z,33.00
2023-05-05T14:34:20.886Z,32.80
2023-05-05T14:36:47.803Z,32.90
2023-05-05T14:39:18.163Z,32.50
2023-05-05T14:41:44.993Z,32.30
2023-05-05T14:44:11.878Z,32.50
2023-05-05T14:46:38.721Z,32.70
2023-05-05T14:49:06.267Z,32.60
2023-05-05T14:51:33.262Z,33.20
2023-05-05T14:54:00.209Z,33.70
2023-05-05T14:56:28.483Z,34.00
2023-05-05T14:58:55.344Z,34.30
2023-05-05T15:01:22.712Z,34.50
2023-05-05T15:03:49.958Z,34.90
2023-05-05T15:06:17.030Z,34.90
2023-05-05T15:08:45.181Z,35.10
2023-05-05T15:11:12.022Z,35.20
2023-05-05T15:13:40.378Z,35.30
2023-05-05T15:16:08.004Z,35.20
2023-05-05T15:18:35.869Z,35.40
2023-05-05T15:21:02.733Z,36.20
2023-05-05T15:23:29.574Z,35.80
2023-05-05T15:25:57.596Z,36.60
2023-05-05T15:28:24.477Z,36.90
2023-05-05T15:30:51.334Z,37.10
2023-05-05T15:33:18.216Z,37.00
2023-05-05T15:35:45.977Z,36.60
2023-05-05T15:38:16.262Z,36.60
2023-05-05T15:40:44.658Z,37.30
2023-05-05T15:43:12.607Z,37.30
2023-05-05T15:45:42.245Z,36.90
2023-05-05T15:48:09.188Z,36.80
2023-05-05T15:50:36.845Z,36.70
2023-05-05T15:53:03.683Z,36.80
2023-05-05T15:55:30.562Z,36.80
2023-05-05T15:57:58.315Z,36.60
2023-05-05T16:00:49.509Z,36.80
2023-05-05T16:03:17.885Z,36.80
2023-05-05T16:05:44.896Z,36.90
2023-05-05T16:08:12.643Z,36.80
2023-05-05T16:10:39.681Z,36.90
2023-05-05T16:13:07.051Z,37.10
2023-05-05T16:15:35.970Z,37.10
2023-05-05T16:18:02.824Z,37.20
2023-05-05T16:20:29.857Z,37.30
2023-05-05T16:22:57.731Z,37.20
2023-05-05T16:25:24.602Z,37.40
2023-05-05T16:27:52.045Z,37.50
2023-05-05T16:30:20.406Z,37.50
2023-05-05T16:32:51.297Z,37.60
2023-05-05T16:35:18.282Z,37.60
2023-05-05T16:37:45.188Z,37.80
2023-05-05T16:40:12.914Z,37.80
2023-05-05T16:42:39.765Z,37.80
2023-05-05T16:45:08.630Z,37.80
2023-05-05T16:47:35.834Z,38.00
2023-05-05T16:50:03.300Z,38.10
2023-05-05T16:52:31.161Z,38.20
2023-05-05T16:54:58.063Z,38.30
2023-05-05T16:57:25.166Z,38.40
2023-05-05T16:59:54.794Z,38.40
2023-05-05T17:02:21.697Z,38.60
2023-05-05T17:04:49.554Z,38.80
2023-05-05T17:07:16.498Z,38.80
2023-05-05T17:09:43.345Z,38.70
2023-05-05T17:12:11.433Z,39.20
2023-05-05T17:14:38.331Z,39.40
2023-05-05T17:17:05.476Z,39.60
2023-05-05T17:19:33.345Z,40.00
2023-05-05T17:22:00.784Z,40.30
2023-05-05T17:24:27.641Z,40.60
2023-05-05T17:26:55.246Z,40.90
2023-05-05T17:29:23.387Z,41.10
2023-05-05T17:31:51.755Z,41.10
2023-05-05T17:34:18.683Z,41.70
2023-05-05T17:36:47.953Z,41.00
2023-05-05T17:39:14.799Z,40.90
2023-05-05T17:41:43.002Z,40.70
2023-05-05T17:44:11.907Z,40.60
2023-05-05T17:46:39.411Z,40.50
2023-05-05T17:49:11.859Z,40.50
2023-05-05T17:51:39.547Z,40.60
2023-05-05T17:54:06.698Z,40.40
2023-05-05T17:56:37.065Z,40.40
2023-05-05T17:59:04.371Z,40.10
2023-05-05T18:01:31.909Z,40.10
2023-05-05T18:03:58.853Z,40.50
2023-05-05T18:06:26.807Z,40.00
2023-05-05T18:08:53.679Z,40.20
2023-05-05T18:11:21.368Z,40.60
2023-05-05T18:13:49.031Z,40.80
2023-05-05T18:16:15.845Z,41.00
2023-05-05T18:18:44.175Z,41.40
2023-05-05T18:21:12.353Z,41.80
2023-05-05T18:23:40.325Z,42.30
2023-05-05T18:26:09.119Z,42.40
2023-05-05T18:28:36.867Z,42.50
2023-05-05T18:31:04.174Z,42.90
2023-05-05T18:33:31.090Z,43.20
2023-05-05T18:36:05.280Z,43.30
2023-05-05T18:38:38.671Z,43.20
2023-05-05T18:41:08.501Z,43.10
2023-05-05T18:43:35.611Z,43.30
2023-05-05T18:46:08.930Z,43.60
2023-05-05T18:48:39.208Z,43.80
2023-05-05T18:51:07.571Z,43.90
2023-05-05T18:53:35.673Z,43.90
2023-05-05T18:56:03.102Z,44.10
2023-05-05T18:58:30.750Z,44.30
2023-05-05T19:01:00.374Z,44.40
2023-05-05T19:03:27.207Z,44.50
2023-05-05T19:05:55.456Z,44.60
2023-05-05T19:08:25.452Z,44.80
2023-05-05T19:10:55.714Z,44.80
2023-05-05T19:13:25.662Z,44.80
2023-05-05T19:15:52.735Z,45.00
2023-05-05T19:18:19.623Z,45.10
2023-05-05T19:20:47.726Z,45.20
2023-05-05T19:23:17.137Z,45.10
2023-05-05T19:25:44.686Z,45.20
2023-05-05T19:28:12.048Z,45.30
2023-05-05T19:30:41.066Z,45.40
2023-05-05T19:33:12.325Z,45.50
2023-05-05T19:35:42.234Z,45.60
2023-05-05T19:38:12.745Z,45.80
2023-05-05T19:40:43.887Z,46.10
2023-05-05T19:43:11.771Z,46.40
2023-05-05T19:45:38.691Z,46.40
2023-05-05T19:48:06.881Z,46.60
2023-05-05T19:50:33.774Z,46.80
2023-05-05T19:53:04.811Z,47.00
2023-05-05T19:55:34.759Z,47.00
2023-05-05T19:58:07.463Z,46.90
2023-05-05T20:00:34.345Z,47.30
2023-05-05T20:03:02.036Z,47.70
2023-05-05T20:05:28.924Z,47.90
2023-05-05T20:07:55.917Z,47.80
2023-05-05T20:10:22.857Z,47.90
2023-05-05T20:12:51.541Z,48.70
2023-05-05T20:15:37.731Z,48.10
2023-05-05T20:18:04.697Z,48.00
2023-05-05T20:20:31.586Z,48.20
2023-05-05T20:22:58.646Z,48.30
2023-05-05T20:25:25.629Z,48.30
2023-05-05T20:27:53.327Z,48.40
2023-05-05T20:30:20.250Z,48.40
2023-05-05T20:32:47.942Z,48.40
2023-05-05T20:35:15.103Z,48.60
2023-05-05T20:37:44.993Z,48.60
2023-05-05T20:40:12.737Z,48.60
2023-05-05T20:42:39.678Z,48.60
2023-05-05T20:45:07.101Z,48.70
2023-05-05T20:47:37.079Z,48.80
2023-05-05T20:50:04.440Z,48.90
2023-05-05T20:52:40.097Z,49.00
2023-05-05T20:55:07.685Z,49.00
2023-05-05T20:57:35.576Z,49.30
2023-05-05T21:00:02.592Z,49.50
2023-05-05T21:02:31.738Z,49.50
2023-05-05T21:05:02.881Z,49.50
2023-05-05T21:07:33.160Z,49.60
2023-05-05T21:10:03.823Z,49.70
2023-05-05T21:12:32.120Z,50.00
2023-05-05T21:14:59.620Z,50.00
2023-05-05T21:17:29.654Z,50.10
2023-05-05T21:19:57.631Z,50.00
2023-05-05T21:22:24.541Z,49.80
2023-05-05T21:24:52.423Z,50.00
2023-05-05T21:27:20.009Z,50.00
2023-05-05T21:29:47.148Z,50.20
2023-05-05T21:32:13.962Z,50.40
2023-05-05T21:34:41.819Z,50.50
2023-05-05T21:37:08.644Z,50.60
2023-05-05T21:39:35.656Z,50.60
2023-05-05T21:42:02.668Z,50.60
2023-05-05T21:44:29.638Z,50.70
2023-05-05T21:46:56.533Z,50.80
2023-05-05T21:49:23.375Z,51.00
2023-05-05T21:51:50.304Z,51.30
2023-05-05T21:54:17.864Z,51.30
2023-05-05T21:56:44.695Z,51.50
2023-05-05T21:59:12.327Z,52.00
2023-05-05T22:01:39.286Z,52.20
2023-05-05T22:04:08.494Z,52.50
2023-05-05T22:06:35.829Z,52.90
2023-05-05T22:09:03.888Z,52.50
2023-05-05T22:11:32.092Z,53.00
2023-05-05T22:13:58.873Z,53.10
2023-05-05T22:16:25.995Z,53.40
2023-05-05T22:18:53.107Z,53.20
2023-05-05T22:21:22.026Z,53.40
2023-05-05T22:23:48.839Z,53.70
2023-05-05T22:26:16.474Z,54.10
2023-05-05T22:28:43.341Z,54.40
2023-05-05T22:31:11.619Z,54.10
2023-05-05T22:33:38.583Z,54.10
2023-05-05T22:36:06.493Z,53.60
2023-05-05T22:38:33.487Z,54.60
2023-05-05T22:41:01.070Z,55.30
2023-05-05T22:43:27.928Z,55.40
2023-05-05T22:45:54.835Z,55.10
2023-05-05T22:48:21.720Z,54.90
2023-05-05T22:50:49.025Z,54.80
2023-05-05T22:53:16.620Z,55.20
2023-05-05T22:55:43.485Z,55.20
2023-05-05T22:58:11.616Z,55.00
2023-05-05T23:00:38.412Z,55.30
2023-05-05T23:03:06.074Z,55.30
2023-05-05T23:05:36.911Z,55.70
2023-05-05T23:08:04.717Z,56.30
2023-05-05T23:10:31.839Z,56.60
2023-05-05T23:12:58.686Z,57.00
2023-05-05T23:15:25.622Z,57.70
2023-05-05T23:17:52.586Z,58.30
2023-05-05T23:20:19.724Z,58.80
2023-05-05T23:22:46.541Z,59.40
2023-05-05T23:25:13.916Z,59.40
2023-05-05T23:27:41.216Z,59.80
2023-05-05T23:30:09.422Z,60.20
2023-05-05T23:32:37.076Z,60.20
2023-05-05T23:35:04.173Z,60.60
2023-05-05T23:37:31.951Z,60.90
2023-05-05T23:39:58.958Z,61.40
2023-05-05T23:42:26.586Z,61.50
2023-05-05T23:44:53.403Z,61.40
2023-05-05T23:47:20.329Z,61.60
2023-05-05T23:49:47.201Z,61.80
2023-05-05T23:52:14.387Z,62.00
2023-05-05T23:54:41.517Z,61.90
2023-05-05T23:57:09.084Z,62.20
2023-05-05T23:59:35.930Z,62.10
